GEML

Melilla Airport

Melilla, Spain
METAR GEML 161200Z 27015KT 230V330 CAVOK 20/06 Q1025
Observed Flight Rules
Dec-16 @ 12:00 UTC (45 minutes ago) Visual Flight Rules
Wind Visibility Clouds
270° at 15 knots 10,000+ meters
  • Clear skies
Temperatures Readings
Current 20°C / 68°F
Dewpoint 6°C / 43°F
Humidity 40%
Altimeter 30.27" Hg
Pressure 1025 hPa
Elevation 55
METAR GEML 161200Z 27015KT 230V330 CAVOK 20/06 Q1025
Observed Flight Rules
Dec-16 @ 12:00 UTC
(45 minutes ago)
VFR
Wind Visibility
270° at 15 knots 10,000+ meters
Clouds
  • Clear skies
Temperature Dewpoint
20°C / 68°F 6°C / 43°F
Humidity Altimeter Pressure
40% 30.27" Hg 1025 hPa